<?xml version="1.0" encoding="UTF-8" standalone="no" ?>
<gpx xmlns="http://www.topografix.com/GPX/1/1" xmlns:xsi="http://www.w3.org/2001/XMLSchema-instance" xsi:schemaLocation="http://www.topografix.com/GPX/1/1 http://www.topografix.com/GPX/1/1/gpx.xsd" version="1.1" creator="VisuGPX - https://www.visugpx.com">
  <metadata>
    <name>Mini circuit Passy 3</name>
    <desc><![CDATA[Mini circuit pour RY Vn ............]]></desc>
  </metadata>
  <trk>
    <name><![CDATA[20180128211934-11itk]]></name>
    <trkseg>
      <trkpt lat="48.11359" lon="3.31918">
        <ele>150</ele>
        <time>2018-01-28T21:04:25Z</time>
      </trkpt>
      <trkpt lat="48.11352" lon="3.31894">
        <ele>151</ele>
        <time>2018-01-28T21:05:25Z</time>
      </trkpt>
      <trkpt lat="48.11346" lon="3.31867">
        <ele>151</ele>
        <time>2018-01-28T21:06:25Z</time>
      </trkpt>
      <trkpt lat="48.11333" lon="3.31853">
        <ele>151</ele>
        <time>2018-01-28T21:07:25Z</time>
      </trkpt>
      <trkpt lat="48.11318" lon="3.31846">
        <ele>152</ele>
        <time>2018-01-28T21:08:25Z</time>
      </trkpt>
      <trkpt lat="48.11298" lon="3.31853">
        <ele>154</ele>
        <time>2018-01-28T21:09:25Z</time>
      </trkpt>
      <trkpt lat="48.11289" lon="3.31858">
        <ele>155</ele>
        <time>2018-01-28T21:10:25Z</time>
      </trkpt>
      <trkpt lat="48.11278" lon="3.31861">
        <ele>156</ele>
        <time>2018-01-28T21:11:25Z</time>
      </trkpt>
      <trkpt lat="48.11267" lon="3.31855">
        <ele>157</ele>
        <time>2018-01-28T21:12:25Z</time>
      </trkpt>
      <trkpt lat="48.11256" lon="3.31851">
        <ele>158</ele>
        <time>2018-01-28T21:13:25Z</time>
      </trkpt>
      <trkpt lat="48.11243" lon="3.31847">
        <ele>158</ele>
        <time>2018-01-28T21:14:25Z</time>
      </trkpt>
      <trkpt lat="48.11235" lon="3.31862">
        <ele>160</ele>
        <time>2018-01-28T21:15:25Z</time>
      </trkpt>
      <trkpt lat="48.11224" lon="3.3187">
        <ele>161</ele>
        <time>2018-01-28T21:16:25Z</time>
      </trkpt>
      <trkpt lat="48.11215" lon="3.31874">
        <ele>162</ele>
        <time>2018-01-28T21:17:25Z</time>
      </trkpt>
      <trkpt lat="48.11221" lon="3.31884">
        <ele>162</ele>
        <time>2018-01-28T21:26:25Z</time>
      </trkpt>
      <trkpt lat="48.11235" lon="3.31887">
        <ele>161</ele>
        <time>2018-01-28T21:27:25Z</time>
      </trkpt>
      <trkpt lat="48.11247" lon="3.31886">
        <ele>160</ele>
        <time>2018-01-28T21:28:25Z</time>
      </trkpt>
      <trkpt lat="48.11257" lon="3.31876">
        <ele>159</ele>
        <time>2018-01-28T21:29:25Z</time>
      </trkpt>
      <trkpt lat="48.1127" lon="3.31895">
        <ele>159</ele>
        <time>2018-01-28T21:30:25Z</time>
      </trkpt>
      <trkpt lat="48.1127" lon="3.31907">
        <ele>159</ele>
        <time>2018-01-28T21:31:25Z</time>
      </trkpt>
      <trkpt lat="48.11274" lon="3.31954">
        <ele>160</ele>
      </trkpt>
      <trkpt lat="48.11284" lon="3.32005">
        <ele>163</ele>
      </trkpt>
      <trkpt lat="48.11287" lon="3.32067">
        <ele>164</ele>
      </trkpt>
      <trkpt lat="48.1129" lon="3.32127">
        <ele>166</ele>
      </trkpt>
      <trkpt lat="48.113" lon="3.32193">
        <ele>168</ele>
      </trkpt>
      <trkpt lat="48.11326" lon="3.3223">
        <ele>167</ele>
      </trkpt>
      <trkpt lat="48.11349" lon="3.32241">
        <ele>165</ele>
      </trkpt>
      <trkpt lat="48.11368" lon="3.32176">
        <ele>164</ele>
      </trkpt>
      <trkpt lat="48.11378" lon="3.32065">
        <ele>157</ele>
      </trkpt>
      <trkpt lat="48.11386" lon="3.32001">
        <ele>154</ele>
      </trkpt>
      <trkpt lat="48.11388" lon="3.3196">
        <ele>150</ele>
        <time>2018-01-28T21:42:25Z</time>
      </trkpt>
      <trkpt lat="48.11393" lon="3.31945">
        <ele>148</ele>
        <time>2018-01-28T21:43:25Z</time>
      </trkpt>
      <trkpt lat="48.11396" lon="3.31927">
        <ele>147</ele>
        <time>2018-01-28T21:44:25Z</time>
      </trkpt>
      <trkpt lat="48.1139" lon="3.3192">
        <ele>147</ele>
        <time>2018-01-28T21:45:25Z</time>
      </trkpt>
      <trkpt lat="48.11381" lon="3.31928">
        <ele>149</ele>
        <time>2018-01-28T21:46:25Z</time>
      </trkpt>
      <trkpt lat="48.11372" lon="3.31928">
        <ele>149</ele>
        <time>2018-01-28T21:47:25Z</time>
      </trkpt>
      <trkpt lat="48.11358" lon="3.31919">
        <ele>150</ele>
        <time>2018-01-28T21:48:25Z</time>
      </trkpt>
    </trkseg>
  </trk>
</gpx>